Time;durP1;ratioP1;P1;durP2;ratioP2;P2;SDS_P1;SDS_P2;PMS_P1;PMS_P2;Temp;Humidity;BMP_temperature;BMP_pressure;BME280_temperature;BME280_humidity;BME280_pressure;Samples;Min_cycle;Max_cycle;Signal;HPM_P1;HPM_P2
2022/11/25 00:01:28;;;;;;;32.25;28.80;;;;;;;13.78;93.28;100858.72;5043949;28;20060;-69
2022/11/25 00:03:56;;;;;;;33.92;30.38;;;;;;;13.75;93.33;100854.56;5039737;28;20053;-68
2022/11/25 00:06:42;;;;;;;35.88;31.65;;;;;;;13.84;92.98;100869.59;5048861;28;20052;-68
2022/11/25 00:09:11;;;;;;;40.92;34.47;;;;;;;13.88;93.10;100873.53;5039244;28;20061;-68
2022/11/25 00:11:41;;;;;;;34.65;31.02;;;;;;;13.83;92.91;100862.31;5041202;28;20505;-69
2022/11/25 00:14:13;;;;;;;33.10;29.83;;;;;;;13.85;92.79;100888.16;5041299;28;20065;-68
2022/11/25 00:16:40;;;;;;;44.45;30.30;;;;;;;13.93;92.88;100889.47;5032355;28;20053;-72
2022/11/25 00:19:14;;;;;;;38.08;34.13;;;;;;;13.96;92.95;100900.13;5042362;28;20085;-68
2022/11/25 00:21:41;;;;;;;34.33;29.63;;;;;;;13.95;92.52;100904.91;5036645;28;20057;-69
2022/11/25 00:24:09;;;;;;;35.03;31.02;;;;;;;13.91;92.41;100909.44;5046772;28;20508;-70
2022/11/25 00:26:36;;;;;;;38.35;29.67;;;;;;;13.89;92.01;100928.53;5043196;28;20053;-69
2022/11/25 00:29:05;;;;;;;33.03;29.65;;;;;;;13.93;91.89;100928.78;5035334;28;20445;-69
2022/11/25 00:31:34;;;;;;;39.08;31.77;;;;;;;13.91;91.82;100931.03;5036424;28;20056;-69
2022/11/25 00:34:02;;;;;;;32.58;29.27;;;;;;;13.91;91.89;100937.50;5042607;28;20047;-68
2022/11/25 00:36:32;;;;;;;31.98;28.95;;;;;;;13.92;91.40;100939.19;5044598;28;20051;-68
2022/11/25 00:39:02;;;;;;;32.55;29.33;;;;;;;13.90;91.71;100944.25;5035939;28;20041;-69
2022/11/25 00:47:11;;;;;;;32.60;29.15;;;;;;;13.80;91.63;100947.13;5040867;28;20057;-69
2022/11/25 00:49:40;;;;;;;36.08;29.80;;;;;;;13.87;92.19;100952.41;5045725;28;20053;-69
2022/11/25 00:52:11;;;;;;;33.47;29.85;;;;;;;13.89;91.88;100953.81;5038698;28;20055;-70
2022/11/25 00:54:38;;;;;;;34.70;30.85;;;;;;;13.91;92.20;100962.78;5042273;28;20048;-69
2022/11/25 00:57:04;;;;;;;34.05;30.58;;;;;;;13.93;92.08;100966.13;5039535;28;20067;-69
2022/11/25 00:59:31;;;;;;;33.80;30.45;;;;;;;13.90;91.92;100963.88;5046975;28;20488;-69
2022/11/25 01:01:59;;;;;;;33.03;29.75;;;;;;;13.84;92.03;100962.25;5037085;28;20053;-68
2022/11/25 01:04:25;;;;;;;32.92;28.45;;;;;;;13.75;91.65;100964.03;5041577;28;20049;-68
2022/11/25 01:06:53;;;;;;;31.42;28.33;;;;;;;13.71;91.71;100965.75;5039123;28;20061;-68
2022/11/25 01:09:20;;;;;;;31.33;28.15;;;;;;;13.67;91.78;100984.28;5044412;28;20055;-68
2022/11/25 01:11:50;;;;;;;30.75;27.90;;;;;;;13.62;91.43;100990.75;5041689;28;20408;-67
2022/11/25 01:14:17;;;;;;;;;;;;;;;13.21;92.84;100995.72;5034568;28;20542;-67
2022/11/25 01:16:43;;;;;;;35.78;28.20;;;;;;;13.35;92.21;100996.81;5039091;28;19924;-69
2022/11/25 01:19:11;;;;;;;30.85;27.63;;;;;;;13.31;91.86;100994.88;5042849;28;20088;-68
2022/11/25 01:21:38;;;;;;;33.88;29.25;;;;;;;13.34;91.92;101009.16;5042533;28;20064;-69
2022/11/25 01:24:05;;;;;;;37.10;28.13;;;;;;;13.34;91.62;101000.75;5041716;28;20064;-68
2022/11/25 01:26:33;;;;;;;31.88;27.33;;;;;;;13.36;91.48;101006.88;5038768;28;20051;-67
2022/11/25 01:29:02;;;;;;;31.45;28.38;;;;;;;13.32;91.36;100997.38;5045658;28;20049;-69
2022/11/25 01:31:33;;;;;;;30.08;26.90;;;;;;;13.37;91.41;101005.78;5050361;28;20045;-69
2022/11/25 01:34:04;;;;;;;34.75;28.23;;;;;;;13.38;91.39;100995.41;5040595;28;20077;-68
2022/11/25 01:36:31;;;;;;;41.28;27.73;;;;;;;13.39;91.38;101003.50;5033638;28;20056;-68
2022/11/25 01:38:59;;;;;;;33.13;28.15;;;;;;;13.41;91.22;101000.44;5035623;28;20053;-69
2022/11/25 01:41:30;;;;;;;31.33;27.92;;;;;;;13.40;91.26;100999.59;5037657;28;20049;-70
2022/11/25 01:44:16;;;;;;;40.38;37.17;;;;;;;13.34;90.80;101000.75;5037909;28;20049;-67
2022/11/25 01:47:05;;;;;;;35.17;28.05;;;;;;;13.28;90.95;101002.72;5034506;28;20948;-67
2022/11/25 01:50:01;;;;;;;31.95;28.50;;;;;;;13.20;90.87;100991.25;5037529;28;20045;-68
2022/11/25 01:52:33;;;;;;;30.92;27.80;;;;;;;13.26;90.36;100996.59;5037919;28;20057;-69
2022/11/25 01:55:20;;;;;;;29.08;25.85;;;;;;;13.17;90.08;100995.47;5046248;28;20059;-69
2022/11/25 01:57:51;;;;;;;34.78;27.40;;;;;;;13.13;89.92;100985.09;5032424;28;20056;-69
2022/11/25 02:00:18;;;;;;;40.55;26.13;;;;;;;13.07;89.92;100995.50;5043385;28;20049;-69
2022/11/25 02:02:48;;;;;;;42.10;26.90;;;;;;;13.04;89.50;100990.47;5035273;28;20107;-69
2022/11/25 02:05:19;;;;;;;29.33;26.48;;;;;;;12.95;89.54;100994.97;5038650;28;20049;-69
2022/11/25 02:07:48;;;;;;;30.52;27.45;;;;;;;12.96;89.40;101000.31;5050904;28;20056;-68
2022/11/25 02:10:20;;;;;;;34.83;28.13;;;;;;;12.95;89.23;101007.03;5034536;28;20415;-69
2022/11/25 02:12:47;;;;;;;35.20;28.13;;;;;;;12.89;89.49;101013.81;5052080;28;20048;-69
2022/11/25 02:15:15;;;;;;;33.77;26.17;;;;;;;12.89;89.22;101021.34;5044573;28;20067;-69
2022/11/25 02:17:43;;;;;;;31.07;27.27;;;;;;;12.85;89.29;101032.28;5045503;28;20056;-69
2022/11/25 02:20:16;;;;;;;30.43;27.40;;;;;;;12.81;89.24;101014.38;5038891;28;20068;-69
2022/11/25 02:23:24;;;;;;;31.83;28.43;;;;;;;12.70;89.23;101032.34;5034243;28;20761;-70
2022/11/25 02:25:52;;;;;;;32.73;26.90;;;;;;;12.67;89.19;101025.31;5036735;28;20088;-69
2022/11/25 02:28:25;;;;;;;29.77;26.97;;;;;;;12.66;89.05;101026.47;5043566;28;20041;-70
2022/11/25 02:30:52;;;;;;;29.97;26.63;;;;;;;12.67;88.85;101028.13;5035270;28;20052;-70
2022/11/25 02:33:19;;;;;;;35.50;26.87;;;;;;;12.69;88.61;101031.50;5040751;28;20399;-69
2022/11/25 02:35:46;;;;;;;30.80;26.20;;;;;;;12.68;88.87;101048.59;5038251;28;20060;-68
2022/11/25 02:38:22;;;;;;;31.60;27.30;;;;;;;12.62;88.68;101033.75;5042177;28;20056;-68
2022/11/25 02:40:59;;;;;;;29.20;26.13;;;;;;;12.57;88.75;101040.19;5046518;28;20049;-68
2022/11/25 02:43:28;;;;;;;30.60;25.00;;;;;;;12.56;88.76;101038.53;5044038;28;20492;-68
2022/11/25 02:45:57;;;;;;;27.73;25.13;;;;;;;12.56;88.55;101046.94;5041466;28;20049;-67
2022/11/25 02:48:27;;;;;;;30.10;26.65;;;;;;;12.46;88.85;101029.28;5049841;28;20053;-67
2022/11/25 02:51:17;;;;;;;34.30;26.92;;;;;;;12.41;88.86;101044.16;5031852;28;20045;-67
2022/11/25 02:53:44;;;;;;;29.13;25.75;;;;;;;12.31;88.91;101033.78;5060602;28;20057;-67
2022/11/25 02:56:13;;;;;;;36.70;33.30;;;;;;;12.38;88.83;101043.88;5050220;28;20064;-68
2022/11/25 02:58:41;;;;;;;26.67;23.90;;;;;;;12.28;88.72;101033.50;5051351;28;20491;-67
2022/11/25 03:01:08;;;;;;;29.63;25.83;;;;;;;12.24;88.66;101030.44;5042112;28;20049;-67
2022/11/25 03:03:36;;;;;;;31.07;25.00;;;;;;;12.27;88.89;101034.59;5041386;28;20049;-67
2022/11/25 03:06:03;;;;;;;27.73;25.27;;;;;;;12.22;88.94;101040.22;5034499;28;20045;-68
2022/11/25 03:08:33;;;;;;;29.02;24.92;;;;;;;12.05;89.02;101029.28;5050368;28;20129;-67
2022/11/25 03:11:00;;;;;;;27.33;24.70;;;;;;;12.18;88.77;101053.09;5031071;28;20060;-67
2022/11/25 03:13:27;;;;;;;27.80;24.73;;;;;;;12.11;88.66;101046.94;5040592;28;20060;-68
2022/11/25 03:15:54;;;;;;;27.17;24.73;;;;;;;12.13;88.67;101053.09;5035663;28;20049;-68
2022/11/25 03:18:21;;;;;;;28.10;24.83;;;;;;;12.05;88.71;101037.69;5048586;28;20469;-68
2022/11/25 03:20:52;;;;;;;30.47;27.67;;;;;;;11.99;88.34;101031.25;5056268;28;20053;-68
2022/11/25 03:23:19;;;;;;;27.60;24.80;;;;;;;12.03;88.62;101031.53;5049263;28;20049;-68
2022/11/25 03:25:46;;;;;;;28.60;25.80;;;;;;;12.00;88.71;101046.94;5049830;28;20515;-69
2022/11/25 03:28:13;;;;;;;28.73;26.03;;;;;;;11.93;88.74;101037.09;5053112;28;20705;-69
2022/11/25 03:30:40;;;;;;;28.97;26.17;;;;;;;11.96;88.78;101048.59;5051620;28;20044;-68
2022/11/25 03:33:07;;;;;;;42.63;25.93;;;;;;;11.94;88.64;101050.84;5049789;28;20060;-68
2022/11/25 03:35:33;;;;;;;28.67;26.00;;;;;;;11.86;88.87;101037.38;5057280;28;20504;-68
2022/11/25 03:38:00;;;;;;;27.67;25.03;;;;;;;11.87;88.82;101053.06;5055245;28;20053;-69
2022/11/25 03:40:27;;;;;;;28.60;25.10;;;;;;;11.79;89.03;101048.81;5047714;28;20049;-68
2022/11/25 03:42:54;;;;;;;27.53;25.30;;;;;;;11.83;89.01;101060.31;5044515;28;20044;-68
2022/11/25 03:45:20;;;;;;;27.63;25.30;;;;;;;11.83;89.07;101060.31;5045813;28;20342;-67
2022/11/25 03:47:47;;;;;;;27.77;25.23;;;;;;;11.80;89.20;101049.66;5043578;28;20469;-67
2022/11/25 03:50:15;;;;;;;27.70;24.77;;;;;;;11.81;89.15;101046.59;5067680;28;20048;-67
2022/11/25 03:52:42;;;;;;;36.50;25.60;;;;;;;11.81;89.48;101051.34;5047745;28;20044;-68
2022/11/25 03:55:11;;;;;;;28.50;25.67;;;;;;;11.82;89.56;101044.63;5044933;28;20056;-67
2022/11/25 03:57:39;;;;;;;29.13;26.05;;;;;;;11.83;89.99;101054.72;5069074;28;20049;-67
2022/11/25 04:00:06;;;;;;;27.97;25.23;;;;;;;11.87;90.04;101058.66;5060818;28;20063;-67
2022/11/25 04:02:33;;;;;;;32.07;26.90;;;;;;;11.85;89.96;101055.28;5051516;28;20419;-66
2022/11/25 04:05:01;;;;;;;26.70;24.50;;;;;;;11.75;89.95;101042.09;5057659;28;20051;-67
2022/11/25 04:07:28;;;;;;;27.20;24.60;;;;;;;11.80;90.16;101049.66;5057165;28;20049;-68
2022/11/25 04:09:55;;;;;;;37.47;26.23;;;;;;;11.90;90.07;101058.13;5033902;28;20099;-68
2022/11/25 04:15:08;;;;;;;27.60;24.50;;;;;;;11.95;89.95;101063.72;5056757;28;20045;-68
2022/11/25 04:17:34;;;;;;;28.70;26.10;;;;;;;11.98;90.04;101063.16;5055660;28;20049;-67
2022/11/25 04:20:02;;;;;;;29.33;26.50;;;;;;;12.00;89.76;101072.13;5045832;28;20060;-69
2022/11/25 04:22:28;;;;;;;27.10;24.67;;;;;;;11.96;89.48;101072.94;5043597;28;20041;-68
2022/11/25 04:24:55;;;;;;;27.80;24.80;;;;;;;11.88;89.29;101074.34;5036888;28;20076;-69
2022/11/25 04:27:22;;;;;;;26.13;23.53;;;;;;;11.85;89.11;101075.72;5037722;28;20065;-69
2022/11/25 04:29:49;;;;;;;25.63;23.27;;;;;;;11.77;89.08;101067.00;5049489;28;20052;-69
2022/11/25 04:32:16;;;;;;;27.03;23.30;;;;;;;11.76;89.02;101065.31;5044601;28;20060;-68
2022/11/25 04:34:42;;;;;;;28.43;22.77;;;;;;;11.76;89.17;101054.13;5046204;28;20415;-68
2022/11/25 04:37:09;;;;;;;30.40;23.87;;;;;;;11.84;89.53;101067.63;5034139;28;20068;-70
2022/11/25 04:39:36;;;;;;;26.50;23.70;;;;;;;11.88;89.79;101079.94;5038121;28;20056;-69
2022/11/25 04:44:48;;;;;;;28.30;23.73;;;;;;;11.86;90.29;101073.75;5036738;28;20053;-67
2022/11/25 04:47:35;;;;;;;29.10;25.57;;;;;;;11.91;90.60;101081.34;5038898;28;20061;-68
2022/11/25 04:50:04;;;;;;;29.20;25.73;;;;;;;11.86;90.83;101076.56;5039980;28;20111;-68
2022/11/25 04:52:30;;;;;;;31.67;26.50;;;;;;;11.84;91.07;101085.25;5047279;28;20050;-69
2022/11/25 04:54:57;;;;;;;45.73;42.07;;;;;;;11.81;91.30;101085.75;5051945;28;20511;-69
2022/11/25 04:57:24;;;;;;;26.80;24.37;;;;;;;11.83;91.34;101088.28;5043445;28;20075;-70
2022/11/25 04:59:51;;;;;;;37.17;33.53;;;;;;;11.79;91.43;101084.34;5041345;28;20048;-69
2022/11/25 05:02:20;;;;;;;27.97;25.27;;;;;;;11.88;91.61;101095.88;5044235;28;20061;-69
2022/11/25 05:04:49;;;;;;;28.95;25.92;;;;;;;11.88;91.69;101107.06;5036351;28;20049;-69
2022/11/25 05:07:18;;;;;;;27.80;25.17;;;;;;;11.88;91.72;101107.06;5032664;28;20049;-69
2022/11/25 05:09:45;;;;;;;27.38;24.58;;;;;;;11.91;91.87;101115.75;5040379;28;20128;-70
2022/11/25 05:12:15;;;;;;;27.50;24.60;;;;;;;11.90;91.82;101114.09;5041600;28;20046;-68
2022/11/25 05:14:42;;;;;;;31.63;25.23;;;;;;;11.91;92.05;101124.16;5045746;28;20428;-69
2022/11/25 05:17:14;;;;;;;28.93;25.90;;;;;;;11.94;91.88;101128.38;5045283;28;20048;-67
2022/11/25 05:19:41;;;;;;;26.67;24.27;;;;;;;11.92;92.20;101125.84;5051192;28;20041;-67
2022/11/25 05:22:21;;;;;;;25.50;22.93;;;;;;;11.90;92.10;101133.69;5045842;28;20419;-68
2022/11/25 05:24:48;;;;;;;26.95;24.02;;;;;;;11.95;92.56;101136.47;5039805;28;20056;-67
2022/11/25 05:27:15;;;;;;;25.97;23.70;;;;;;;12.00;92.13;101132.84;5049494;28;20507;-68
2022/11/25 05:29:42;;;;;;;27.27;24.13;;;;;;;12.01;92.11;101140.16;5051260;28;20084;-68
2022/11/25 05:32:10;;;;;;;29.07;26.43;;;;;;;12.02;91.98;101134.25;5042965;28;20066;-68
2022/11/25 05:34:37;;;;;;;25.77;22.83;;;;;;;11.97;91.68;101134.25;5032602;28;20505;-68
2022/11/25 05:37:05;;;;;;;26.53;24.13;;;;;;;11.95;91.77;101141.25;5043172;28;20049;-68
2022/11/25 05:39:32;;;;;;;27.03;24.23;;;;;;;11.99;91.79;101157.19;5039530;28;20071;-68
2022/11/25 05:41:59;;;;;;;25.97;23.57;;;;;;;11.92;91.66;101144.59;5046557;28;20404;-69
2022/11/25 05:44:26;;;;;;;24.73;22.30;;;;;;;11.91;91.48;101146.56;5040754;28;20048;-69
2022/11/25 05:46:53;;;;;;;24.40;22.17;;;;;;;11.91;91.49;101146.56;5052239;28;20099;-70
2022/11/25 05:49:20;;;;;;;24.70;22.33;;;;;;;11.92;91.82;101151.03;5040379;28;20049;-69
2022/11/25 05:51:47;;;;;;;26.37;23.17;;;;;;;11.93;91.46;101169.53;5040327;28;20053;-69
2022/11/25 05:54:14;;;;;;;26.70;23.30;;;;;;;11.93;91.42;101177.91;5041844;28;20060;-67
2022/11/25 05:56:41;;;;;;;24.20;21.70;;;;;;;11.86;91.38;101177.31;5045713;28;20404;-69
2022/11/25 05:59:08;;;;;;;24.53;22.57;;;;;;;11.88;91.49;101191.03;5048691;28;20044;-68
2022/11/25 06:01:35;;;;;;;29.73;23.93;;;;;;;11.77;91.53;101190.13;5042709;28;20045;-67
2022/11/25 06:04:03;;;;;;;25.10;22.57;;;;;;;11.75;91.25;101193.19;5044650;28;20056;-67
2022/11/25 06:06:31;;;;;;;25.23;23.17;;;;;;;11.76;91.44;101205.22;5030957;28;20049;-67
2022/11/25 06:08:58;;;;;;;31.03;24.73;;;;;;;11.75;91.42;101214.72;5030742;28;20539;-67
2022/11/25 06:11:25;;;;;;;26.13;23.70;;;;;;;11.72;91.69;101209.66;5041686;28;20049;-67
2022/11/25 06:13:52;;;;;;;28.53;24.40;;;;;;;11.73;91.63;101220.59;5031607;28;20408;-67
2022/11/25 06:16:21;;;;;;;25.23;23.00;;;;;;;11.76;91.43;101222.88;5043427;28;20053;-67
2022/11/25 06:18:48;;;;;;;25.58;23.42;;;;;;;11.68;91.62;101217.78;5036315;28;20056;-66
2022/11/25 06:21:15;;;;;;;25.93;23.53;;;;;;;11.71;91.61;101239.63;5050140;28;20122;-66
2022/11/25 06:23:44;;;;;;;25.37;23.27;;;;;;;11.66;91.74;101238.72;5049394;28;20049;-67
2022/11/25 06:26:20;;;;;;;29.97;26.27;;;;;;;11.66;91.73;101238.72;5042885;28;20095;-67
2022/11/25 06:28:49;;;;;;;37.13;33.93;;;;;;;11.65;92.07;101245.44;5036898;28;20076;-66
2022/11/25 06:31:19;;;;;;;28.07;25.17;;;;;;;11.62;91.93;101239.31;5037968;28;20048;-67
2022/11/25 06:33:46;;;;;;;;;;;;;;;11.31;92.94;101243.81;5041863;28;20080;-67
2022/11/25 06:36:17;;;;;;;28.23;25.93;;;;;;;11.40;92.67;101235.78;5043765;28;19936;-71
2022/11/25 06:38:45;;;;;;;26.67;24.23;;;;;;;11.52;92.84;101256.03;5033604;28;20045;-66
2022/11/25 06:41:12;;;;;;;27.87;25.57;;;;;;;11.50;92.73;101263.81;5033964;28;20053;-68
2022/11/25 06:43:40;;;;;;;28.07;25.50;;;;;;;11.55;92.76;101272.25;5030888;28;20045;-67
2022/11/25 06:46:12;;;;;;;34.47;31.80;;;;;;;11.57;92.67;101281.22;5042676;28;20041;-68
2022/11/25 06:48:39;;;;;;;29.03;26.57;;;;;;;11.72;93.30;101291.66;5052401;28;20507;-66
2022/11/25 06:51:10;;;;;;;29.27;26.70;;;;;;;12.34;92.73;101290.03;5045342;28;20053;-68
2022/11/25 06:53:38;;;;;;;27.70;25.57;;;;;;;12.26;91.37;101288.59;5046820;28;20041;-68
2022/11/25 06:56:17;;;;;;;37.63;35.03;;;;;;;12.04;91.01;101294.41;5044513;28;20048;-66
2022/11/25 06:58:45;;;;;;;29.43;27.37;;;;;;;12.03;90.97;101306.72;5046326;28;20525;-67
2022/11/25 07:01:24;;;;;;;55.47;50.67;;;;;;;11.72;90.16;101302.00;5047303;28;20056;-67
2022/11/25 07:03:55;;;;;;;29.57;26.80;;;;;;;11.68;90.52;101315.69;5037576;28;20906;-66
2022/11/25 07:06:22;;;;;;;28.27;26.13;;;;;;;11.55;90.41;101322.59;5037661;28;20049;-68
2022/11/25 07:08:50;;;;;;;29.73;27.00;;;;;;;11.42;90.63;101328.66;5045777;28;20052;-67
2022/11/25 07:11:24;;;;;;;29.17;26.37;;;;;;;11.38;90.66;101316.31;5045453;28;20144;-68
2022/11/25 07:13:53;;;;;;;36.20;33.93;;;;;;;11.22;90.66;101314.50;5043377;28;20404;-67
2022/11/25 07:16:21;;;;;;;27.33;25.15;;;;;;;11.08;90.66;101328.94;5046070;28;20056;-67
2022/11/25 07:18:48;;;;;;;30.87;28.70;;;;;;;10.98;91.08;101330.78;5047164;28;20412;-68
2022/11/25 07:21:18;;;;;;;28.40;26.20;;;;;;;10.89;91.12;101325.66;5042641;28;20064;-68
2022/11/25 07:23:45;;;;;;;;;;;;;;;10.50;92.16;101327.75;5049687;28;20438;-67
2022/11/25 07:26:24;;;;;;;52.07;48.83;;;;;;;10.65;91.96;101341.03;5052461;28;19929;-68
2022/11/25 07:28:53;;;;;;;51.40;47.97;;;;;;;10.62;91.99;101341.56;5041279;28;20504;-68
2022/11/25 07:31:26;;;;;;;48.10;45.20;;;;;;;10.57;92.12;101359.13;5044531;28;20045;-67
2022/11/25 07:34:22;;;;;;;36.60;34.40;;;;;;;10.33;92.04;101357.69;5039353;28;20454;-68
2022/11/25 07:36:49;;;;;;;29.70;27.20;;;;;;;10.26;92.63;101341.13;5036280;28;20045;-66
2022/11/25 07:39:21;;;;;;;27.13;25.33;;;;;;;10.26;92.48;101354.25;5034661;28;20423;-67
2022/11/25 07:41:49;;;;;;;28.40;26.57;;;;;;;10.11;92.98;101358.47;5039911;28;20053;-67
2022/11/25 07:44:16;;;;;;;47.00;44.33;;;;;;;10.06;93.40;101361.22;5033365;28;20056;-67
2022/11/25 07:46:46;;;;;;;27.90;25.90;;;;;;;10.10;93.79;101358.75;5034828;28;20423;-66
2022/11/25 07:49:19;;;;;;;26.45;24.73;;;;;;;10.10;94.00;101370.75;5046138;28;20049;-68
2022/11/25 07:51:52;;;;;;;54.50;51.50;;;;;;;10.11;94.11;101379.97;5053272;28;20053;-66
2022/11/25 07:54:20;;;;;;;27.67;25.87;;;;;;;10.07;94.55;101374.06;5034873;28;20045;-67
2022/11/25 07:56:48;;;;;;;26.63;24.73;;;;;;;10.17;94.49;101379.78;5045278;28;20419;-67
2022/11/25 07:59:20;;;;;;;44.20;41.90;;;;;;;10.23;94.64;101394.66;5047284;28;20052;-67
2022/11/25 08:01:53;;;;;;;43.47;41.20;;;;;;;10.23;94.64;101389.06;5049438;28;20341;-67
2022/11/25 08:04:20;;;;;;;25.47;23.40;;;;;;;10.24;94.75;101396.34;5043574;28;20045;-67
2022/11/25 08:06:49;;;;;;;29.30;27.20;;;;;;;10.25;94.73;101402.75;5036383;28;20065;-67
2022/11/25 08:09:19;;;;;;;36.73;34.50;;;;;;;10.15;94.62;101398.75;5043372;28;20052;-66
2022/11/25 08:11:47;;;;;;;27.58;25.65;;;;;;;10.06;94.82;101400.28;5053958;28;20131;-67
2022/11/25 08:14:14;;;;;;;26.43;24.57;;;;;;;10.17;94.83;101415.22;5036437;28;20061;-67
2022/11/25 08:16:42;;;;;;;47.07;44.13;;;;;;;10.26;94.83;101432.44;5034005;28;20140;-67
2022/11/25 08:19:13;;;;;;;28.57;26.33;;;;;;;10.53;95.74;101433.38;5038908;28;20053;-68
2022/11/25 08:21:40;;;;;;;26.77;25.07;;;;;;;10.92;96.41;101430.50;5053700;28;20057;-67
2022/11/25 08:24:13;;;;;;;25.50;23.90;;;;;;;11.21;96.65;101441.41;5040729;28;20049;-67
2022/11/25 08:26:40;;;;;;;26.37;24.67;;;;;;;11.63;97.81;101452.75;5035188;28;20049;-68
2022/11/25 08:29:08;;;;;;;40.97;38.40;;;;;;;12.14;99.23;101446.78;5033952;28;20076;-67
2022/11/25 08:31:36;;;;;;;25.88;24.13;;;;;;;12.73;100.00;101460.56;5033707;28;20049;-67
2022/11/25 08:34:06;;;;;;;25.00;23.02;;;;;;;13.21;100.00;101467.75;5033595;28;20046;-67
2022/11/25 08:36:34;;;;;;;28.57;25.97;;;;;;;13.52;100.00;101467.84;5051367;28;20057;-67
2022/11/25 08:39:05;;;;;;;25.00;23.02;;;;;;;13.61;100.00;101485.84;5052991;28;20056;-67
2022/11/25 08:41:51;;;;;;;23.80;22.30;;;;;;;13.61;100.00;101496.22;5034863;28;20054;-67
2022/11/25 08:44:18;;;;;;;22.73;21.13;;;;;;;13.51;100.00;101506.31;5047770;28;20431;-67
2022/11/25 08:46:45;;;;;;;22.70;21.17;;;;;;;13.42;99.56;101499.53;5053402;28;20045;-67
2022/11/25 08:49:16;;;;;;;23.60;21.88;;;;;;;13.25;98.70;101493.31;5050042;28;20057;-66
2022/11/25 08:51:43;;;;;;;36.28;33.85;;;;;;;12.81;96.09;101496.47;5037499;28;20105;-67
2022/11/25 08:54:10;;;;;;;26.13;24.25;;;;;;;12.40;95.38;101496.22;5054140;28;20049;-66
2022/11/25 08:56:36;;;;;;;26.15;24.23;;;;;;;12.28;95.61;101509.59;5046350;28;20056;-65
2022/11/25 08:59:03;;;;;;;42.00;39.33;;;;;;;12.02;94.68;101495.38;5035023;28;20048;-66
2022/11/25 09:01:31;;;;;;;26.93;24.77;;;;;;;12.08;95.23;101505.50;5046663;28;20109;-66
2022/11/25 09:03:58;;;;;;;26.23;24.10;;;;;;;12.11;95.36;101515.34;5045883;28;20136;-67
2022/11/25 09:06:27;;;;;;;25.03;23.17;;;;;;;12.27;95.29;101510.69;5042842;28;20132;-66
2022/11/25 09:09:00;;;;;;;37.27;34.60;;;;;;;12.42;95.67;101515.59;5048629;28;20423;-67
2022/11/25 09:11:27;;;;;;;27.93;25.20;;;;;;;12.71;96.41;101508.47;5053659;28;20057;-66
2022/11/25 09:13:55;;;;;;;28.10;25.93;;;;;;;13.07;96.96;101511.47;5050367;28;20166;-64
2022/11/25 09:16:22;;;;;;;26.88;24.70;;;;;;;13.70;98.43;101515.03;5044479;28;20081;-68
2022/11/25 09:18:52;;;;;;;;;;;;;;;14.31;100.00;101519.00;5047440;28;20056;-67
2022/11/25 09:21:23;;;;;;;26.08;23.67;;;;;;;15.23;100.00;101521.59;5052319;28;19921;-67
2022/11/25 09:23:53;;;;;;;40.17;37.92;;;;;;;16.50;100.00;101519.88;5045052;28;20045;-67
2022/11/25 09:26:25;;;;;;;22.90;21.17;;;;;;;17.45;100.00;101518.22;5049643;28;20534;-67
2022/11/25 09:28:53;;;;;;;24.40;22.90;;;;;;;18.25;100.00;101514.44;5047557;28;20060;-67
2022/11/25 09:31:21;;;;;;;22.30;20.90;;;;;;;18.82;100.00;101517.13;5047785;28;20472;-66
2022/11/25 09:33:48;;;;;;;22.85;21.55;;;;;;;19.17;100.00;101519.22;5049435;28;20503;-67
2022/11/25 09:36:16;;;;;;;20.40;19.13;;;;;;;19.48;100.00;101517.72;5048669;28;20124;-67
2022/11/25 09:38:43;;;;;;;22.38;20.90;;;;;;;19.84;99.36;101527.13;5049595;28;20049;-67
2022/11/25 09:46:40;;;;;;;23.02;21.25;;;;;;;20.59;98.61;101531.22;5050344;28;20041;-67
2022/11/25 09:47:47;;;;;;;22.83;21.33;;;;;;;22.23;98.46;101532.88;5049281;28;20696;-67
2022/11/25 09:50:40;;;;;;;22.38;20.90;;;;;;;22.90;97.00;101521.97;5047574;28;20077;-68
2022/11/25 09:53:16;;;;;;;21.80;20.50;;;;;;;23.39;90.76;101539.56;5049060;28;20057;-68
2022/11/25 09:55:46;;;;;;;23.02;21.52;;;;;;;23.50;89.17;101540.00;5049547;28;20049;-68
2022/11/25 09:58:49;;;;;;;24.10;22.60;;;;;;;23.48;93.58;101533.78;5047692;28;20045;-68
2022/11/25 10:01:21;;;;;;;24.02;22.38;;;;;;;23.37;86.30;101542.75;5036184;28;20056;-68
2022/11/25 10:03:57;;;;;;;23.30;21.33;;;;;;;23.47;86.64;101538.66;5049755;28;20084;-67
2022/11/25 10:06:27;;;;;;;23.30;21.60;;;;;;;23.86;85.29;101548.84;5048454;28;20407;-68
2022/11/25 10:09:10;;;;;;;29.13;27.13;;;;;;;23.98;85.62;101547.25;5047009;28;20048;-68
2022/11/25 10:11:49;;;;;;;23.15;21.77;;;;;;;24.24;83.94;101550.72;5045934;28;20061;-68
2022/11/25 10:14:47;;;;;;;24.00;22.40;;;;;;;24.31;90.72;101547.31;5047305;28;20407;-68
2022/11/25 10:17:14;;;;;;;24.08;22.42;;;;;;;24.56;85.42;101551.94;5046429;28;20067;-68
2022/11/25 10:20:00;;;;;;;24.65;22.95;;;;;;;25.11;84.81;101557.53;5049898;28;20049;-68
2022/11/25 10:22:31;;;;;;;39.08;36.97;;;;;;;25.58;83.95;101549.38;5043426;28;20060;-68
2022/11/25 10:25:01;;;;;;;25.08;23.33;;;;;;;25.98;83.77;101548.59;5048515;28;20413;-67
2022/11/25 10:27:40;;;;;;;22.17;20.63;;;;;;;26.24;83.35;101548.16;5050487;28;20068;-67
2022/11/25 10:30:47;;;;;;;27.42;24.80;;;;;;;25.87;71.84;101554.00;5050191;28;20063;-68
2022/11/25 10:33:31;;;;;;;28.25;25.60;;;;;;;24.21;79.12;101544.88;5049087;28;20460;-67
2022/11/25 10:36:05;;;;;;;27.35;25.13;;;;;;;23.77;79.55;101556.63;5051005;28;20045;-67
2022/11/25 10:38:41;;;;;;;27.27;24.92;;;;;;;23.13;78.52;101551.09;5050916;28;20507;-67
2022/11/25 10:41:14;;;;;;;27.92;25.60;;;;;;;23.09;78.03;101535.84;5045708;28;20049;-69
2022/11/25 10:43:44;;;;;;;28.38;25.77;;;;;;;23.01;78.12;101546.13;5050476;28;20514;-68
2022/11/25 10:46:39;;;;;;;26.48;24.27;;;;;;;23.62;85.04;101538.09;5051429;28;20045;-68
2022/11/25 10:49:59;;;;;;;26.33;24.13;;;;;;;24.40;80.83;101550.06;5050833;28;20044;-67
2022/11/25 10:52:29;;;;;;;26.52;24.52;;;;;;;24.05;73.73;101541.81;5050959;28;20070;-67
2022/11/25 10:55:08;;;;;;;25.77;23.67;;;;;;;23.39;66.32;101534.69;5047806;28;20041;-68
2022/11/25 10:57:35;;;;;;;23.63;21.98;;;;;;;22.94;71.26;101540.94;5044218;28;20432;-68
2022/11/25 11:00:04;;;;;;;27.70;25.33;;;;;;;23.06;72.15;101534.53;5050041;28;20055;-68
2022/11/25 11:02:34;;;;;;;36.20;33.42;;;;;;;24.03;72.55;101541.31;5049249;28;20041;-69
2022/11/25 11:05:07;;;;;;;25.70;23.60;;;;;;;24.95;73.01;101538.22;5039087;28;20132;-68
2022/11/25 11:07:37;;;;;;;23.40;21.83;;;;;;;25.01;66.52;101541.69;5048205;28;20049;-68
2022/11/25 11:10:13;;;;;;;23.85;22.30;;;;;;;24.97;68.86;101546.47;5050334;28;20059;-68
2022/11/25 11:13:02;;;;;;;25.10;23.15;;;;;;;25.43;67.52;101541.50;5048941;28;20049;-67
2022/11/25 11:15:29;;;;;;;;;;;;;;;25.58;66.74;101543.66;5038549;28;20046;-68
2022/11/25 11:17:58;;;;;;;33.33;31.13;;;;;;;25.78;63.63;101536.13;5040301;28;19928;-67
2022/11/25 11:20:30;;;;;;;32.95;30.90;;;;;;;26.47;64.03;101525.56;5044223;28;20052;-68
2022/11/25 11:23:09;;;;;;;23.65;22.02;;;;;;;26.32;59.09;101538.56;5040049;28;20059;-67
2022/11/25 11:25:38;;;;;;;20.38;19.17;;;;;;;25.46;55.61;101532.22;5049358;28;20411;-67
2022/11/25 11:28:32;;;;;;;22.17;20.77;;;;;;;24.60;55.74;101529.22;5047119;28;20471;-68
2022/11/25 11:31:08;;;;;;;33.35;31.38;;;;;;;25.06;53.73;101519.44;5035315;28;20052;-68
2022/11/25 11:33:47;;;;;;;36.17;34.20;;;;;;;25.45;52.02;101519.09;5041805;28;20045;-68
2022/11/25 11:36:20;;;;;;;24.50;22.92;;;;;;;24.76;47.95;101520.81;5040142;28;20426;-68
2022/11/25 11:38:55;;;;;;;24.15;22.40;;;;;;;24.48;49.15;101520.59;5033181;28;20529;-67
2022/11/25 11:41:49;;;;;;;23.50;21.65;;;;;;;24.95;48.62;101514.53;5046468;28;20557;-67